sensor_id;sensor_type;location;lat;lon;timestamp;pressure;altitude;pressure_sealevel;temperature;humidity
35443;BME280;21561;55.654;37.592;2022-09-09T00:00:49;100058.50;;;6.52;81.32
35443;BME280;21561;55.654;37.592;2022-09-09T00:03:27;100057.66;;;6.54;81.62
35443;BME280;21561;55.654;37.592;2022-09-09T00:06:21;100059.47;;;6.60;81.88
35443;BME280;21561;55.654;37.592;2022-09-09T00:17:01;100068.13;;;6.63;81.83
35443;BME280;21561;55.654;37.592;2022-09-09T00:19:44;100063.81;;;6.61;80.80
35443;BME280;21561;55.654;37.592;2022-09-09T00:22:16;100059.44;;;6.58;80.59
35443;BME280;21561;55.654;37.592;2022-09-09T00:24:55;100068.03;;;6.57;80.99
35443;BME280;21561;55.654;37.592;2022-09-09T00:30:26;100074.03;;;6.56;81.75
35443;BME280;21561;55.654;37.592;2022-09-09T00:32:55;100078.22;;;6.48;81.64
35443;BME280;21561;55.654;37.592;2022-09-09T00:35:29;100071.38;;;6.50;82.03
35443;BME280;21561;55.654;37.592;2022-09-09T00:38:01;100079.91;;;6.47;82.05
35443;BME280;21561;55.654;37.592;2022-09-09T00:40:37;100082.41;;;6.43;82.40
35443;BME280;21561;55.654;37.592;2022-09-09T00:43:35;100083.41;;;6.51;82.51
35443;BME280;21561;55.654;37.592;2022-09-09T00:49:18;100081.66;;;6.48;82.17
35443;BME280;21561;55.654;37.592;2022-09-09T00:57:25;100096.22;;;6.46;82.72
35443;BME280;21561;55.654;37.592;2022-09-09T01:00:16;100094.38;;;6.39;82.82
35443;BME280;21561;55.654;37.592;2022-09-09T01:11:10;100098.63;;;6.36;82.57
35443;BME280;21561;55.654;37.592;2022-09-09T01:13:42;100101.16;;;6.34;83.12
35443;BME280;21561;55.654;37.592;2022-09-09T01:16:13;100100.31;;;6.34;83.14
35443;BME280;21561;55.654;37.592;2022-09-09T01:18:45;100101.22;;;6.37;82.52
35443;BME280;21561;55.654;37.592;2022-09-09T01:26:46;100110.81;;;6.46;83.28
35443;BME280;21561;55.654;37.592;2022-09-09T01:29:17;100115.13;;;6.47;83.10
35443;BME280;21561;55.654;37.592;2022-09-09T01:32:01;100112.72;;;6.56;82.62
35443;BME280;21561;55.654;37.592;2022-09-09T01:34:33;100115.06;;;6.44;82.69
35443;BME280;21561;55.654;37.592;2022-09-09T01:37:06;100119.28;;;6.39;83.15
35443;BME280;21561;55.654;37.592;2022-09-09T01:39:35;100114.88;;;6.33;82.89
35443;BME280;21561;55.654;37.592;2022-09-09T01:42:05;100122.59;;;6.31;83.02
35443;BME280;21561;55.654;37.592;2022-09-09T01:44:34;100118.22;;;6.27;83.34
35443;BME280;21561;55.654;37.592;2022-09-09T01:47:02;100126.81;;;6.26;83.59
35443;BME280;21561;55.654;37.592;2022-09-09T01:49:29;100128.47;;;6.24;83.44
35443;BME280;21561;55.654;37.592;2022-09-09T01:51:57;100130.19;;;6.24;83.72
35443;BME280;21561;55.654;37.592;2022-09-09T01:54:27;100127.66;;;6.25;83.85
35443;BME280;21561;55.654;37.592;2022-09-09T02:08:10;100140.56;;;6.27;83.81
35443;BME280;21561;55.654;37.592;2022-09-09T02:13:16;100144.72;;;6.20;84.10
35443;BME280;21561;55.654;37.592;2022-09-09T02:15:53;100143.03;;;6.22;84.31
35443;BME280;21561;55.654;37.592;2022-09-09T02:18:27;100140.50;;;6.24;84.24
35443;BME280;21561;55.654;37.592;2022-09-09T02:20:56;100139.56;;;6.20;84.39
35443;BME280;21561;55.654;37.592;2022-09-09T02:23:25;100148.16;;;6.19;84.57
35443;BME280;21561;55.654;37.592;2022-09-09T02:25:53;100148.16;;;6.19;84.68
35443;BME280;21561;55.654;37.592;2022-09-09T02:28:24;100150.72;;;6.18;84.92
35443;BME280;21561;55.654;37.592;2022-09-09T02:30:53;100148.91;;;6.14;85.24
35443;BME280;21561;55.654;37.592;2022-09-09T02:33:28;100154.97;;;6.17;85.53
35443;BME280;21561;55.654;37.592;2022-09-09T02:35:58;100160.03;;;6.11;85.24
35443;BME280;21561;55.654;37.592;2022-09-09T02:38:33;100155.78;;;6.15;85.35
35443;BME280;21561;55.654;37.592;2022-09-09T02:41:02;100156.56;;;6.09;85.52
35443;BME280;21561;55.654;37.592;2022-09-09T02:43:34;100164.28;;;6.09;85.76
35443;BME280;21561;55.654;37.592;2022-09-09T02:49:09;100169.22;;;5.98;86.54
35443;BME280;21561;55.654;37.592;2022-09-09T02:54:25;100175.03;;;5.89;86.92
35443;BME280;21561;55.654;37.592;2022-09-09T02:56:54;100181.84;;;5.87;87.00
35443;BME280;21561;55.654;37.592;2022-09-09T02:59:21;100181.72;;;5.81;87.40
35443;BME280;21561;55.654;37.592;2022-09-09T03:01:48;100181.72;;;5.81;87.30
35443;BME280;21561;55.654;37.592;2022-09-09T03:04:15;100177.31;;;5.76;87.63
35443;BME280;21561;55.654;37.592;2022-09-09T03:06:42;100176.44;;;5.75;87.51
35443;BME280;21561;55.654;37.592;2022-09-09T03:09:09;100181.53;;;5.72;87.90
35443;BME280;21561;55.654;37.592;2022-09-09T03:11:37;100179.81;;;5.71;87.92
35443;BME280;21561;55.654;37.592;2022-09-09T03:14:04;100188.34;;;5.70;88.12
35443;BME280;21561;55.654;37.592;2022-09-09T03:16:31;100177.13;;;5.66;88.67
35443;BME280;21561;55.654;37.592;2022-09-09T03:19:01;100187.41;;;5.66;88.95
35443;BME280;21561;55.654;37.592;2022-09-09T03:21:27;100193.41;;;5.65;88.86
35443;BME280;21561;55.654;37.592;2022-09-09T03:23:54;100192.47;;;5.62;89.29
35443;BME280;21561;55.654;37.592;2022-09-09T03:26:22;100189.84;;;5.59;89.35
35443;BME280;21561;55.654;37.592;2022-09-09T03:28:49;100194.06;;;5.55;89.79
35443;BME280;21561;55.654;37.592;2022-09-09T03:31:18;100194.84;;;5.52;89.96
35443;BME280;21561;55.654;37.592;2022-09-09T03:33:46;100200.75;;;5.48;90.48
35443;BME280;21561;55.654;37.592;2022-09-09T03:36:14;100202.34;;;5.43;91.07
35443;BME280;21561;55.654;37.592;2022-09-09T03:38:41;100198.06;;;5.42;91.27
35443;BME280;21561;55.654;37.592;2022-09-09T03:41:08;100199.72;;;5.40;91.54
35443;BME280;21561;55.654;37.592;2022-09-09T03:43:35;100210.03;;;5.40;91.38
35443;BME280;21561;55.654;37.592;2022-09-09T03:46:03;100216.81;;;5.38;91.53
35443;BME280;21561;55.654;37.592;2022-09-09T03:48:29;100221.97;;;5.38;91.71
35443;BME280;21561;55.654;37.592;2022-09-09T03:50:56;100223.63;;;5.36;92.26
35443;BME280;21561;55.654;37.592;2022-09-09T03:53:27;100221.03;;;5.34;92.69
35443;BME280;21561;55.654;37.592;2022-09-09T03:55:55;100225.38;;;5.37;92.72
35443;BME280;21561;55.654;37.592;2022-09-09T03:58:26;100224.53;;;5.38;92.22
35443;BME280;21561;55.654;37.592;2022-09-09T04:01:01;100229.81;;;5.43;92.22
35443;BME280;21561;55.654;37.592;2022-09-09T04:03:29;100228.03;;;5.40;92.27
35443;BME280;21561;55.654;37.592;2022-09-09T04:05:58;100221.28;;;5.45;91.90
35443;BME280;21561;55.654;37.592;2022-09-09T04:08:25;100223.84;;;5.45;92.14
35443;BME280;21561;55.654;37.592;2022-09-09T04:10:53;100227.28;;;5.44;91.81
35443;BME280;21561;55.654;37.592;2022-09-09T04:13:25;100229.06;;;5.48;91.38
35443;BME280;21561;55.654;37.592;2022-09-09T04:15:57;100225.72;;;5.52;91.47
35443;BME280;21561;55.654;37.592;2022-09-09T04:18:24;100233.69;;;5.62;91.04
35443;BME280;21561;55.654;37.592;2022-09-09T04:20:52;100231.13;;;5.63;91.10
35443;BME280;21561;55.654;37.592;2022-09-09T04:23:19;100231.16;;;5.65;90.63
35443;BME280;21561;55.654;37.592;2022-09-09T04:25:48;100232.97;;;5.69;90.35
35443;BME280;21561;55.654;37.592;2022-09-09T04:28:16;100231.31;;;5.71;90.05
35443;BME280;21561;55.654;37.592;2022-09-09T04:30:44;100238.19;;;5.72;89.91
35443;BME280;21561;55.654;37.592;2022-09-09T04:33:12;100236.50;;;5.74;89.79
35443;BME280;21561;55.654;37.592;2022-09-09T04:35:45;100229.75;;;5.79;89.45
35443;BME280;21561;55.654;37.592;2022-09-09T04:38:12;100237.53;;;5.82;89.27
35443;BME280;21561;55.654;37.592;2022-09-09T04:40:41;100235.16;;;5.91;88.73
35443;BME280;21561;55.654;37.592;2022-09-09T04:43:09;100244.69;;;5.94;88.33
35443;BME280;21561;55.654;37.592;2022-09-09T04:45:40;100237.75;;;5.91;87.95
35443;BME280;21561;55.654;37.592;2022-09-09T04:48:08;100239.50;;;5.92;88.17
35443;BME280;21561;55.654;37.592;2022-09-09T04:50:36;100238.00;;;6.02;87.80
35443;BME280;21561;55.654;37.592;2022-09-09T04:53:04;100250.13;;;6.08;87.36
35443;BME280;21561;55.654;37.592;2022-09-09T04:55:32;100243.31;;;6.10;86.94
35443;BME280;21561;55.654;37.592;2022-09-09T04:58:07;100252.03;;;6.17;87.07
35443;BME280;21561;55.654;37.592;2022-09-09T05:00:34;100249.56;;;6.21;86.28
35443;BME280;21561;55.654;37.592;2022-09-09T05:03:05;100251.34;;;6.25;86.41
35443;BME280;21561;55.654;37.592;2022-09-09T05:05:33;100254.00;;;6.28;86.57
35443;BME280;21561;55.654;37.592;2022-09-09T05:08:02;100256.69;;;6.35;86.21
35443;BME280;21561;55.654;37.592;2022-09-09T05:10:30;100260.16;;;6.37;85.56
35443;BME280;21561;55.654;37.592;2022-09-09T05:12:57;100261.19;;;6.45;86.60
35443;BME280;21561;55.654;37.592;2022-09-09T05:15:24;100259.53;;;6.48;85.42
35443;BME280;21561;55.654;37.592;2022-09-09T05:17:51;100263.94;;;6.54;85.19
35443;BME280;21561;55.654;37.592;2022-09-09T05:20:19;100265.88;;;6.64;84.85
35443;BME280;21561;55.654;37.592;2022-09-09T05:22:46;100266.03;;;6.74;84.23
35443;BME280;21561;55.654;37.592;2022-09-09T05:25:13;100273.13;;;6.87;83.16
35443;BME280;21561;55.654;37.592;2022-09-09T05:27:40;100269.06;;;6.98;82.40
35443;BME280;21561;55.654;37.592;2022-09-09T05:30:07;100265.75;;;7.07;81.96
35443;BME280;21561;55.654;37.592;2022-09-09T05:32:34;100265.03;;;7.16;80.88
35443;BME280;21561;55.654;37.592;2022-09-09T05:35:01;100273.78;;;7.24;80.69
35443;BME280;21561;55.654;37.592;2022-09-09T05:37:28;100270.44;;;7.31;80.15
35443;BME280;21561;55.654;37.592;2022-09-09T05:39:56;100268.81;;;7.36;80.34
35443;BME280;21561;55.654;37.592;2022-09-09T05:42:24;100261.97;;;7.38;79.86
35443;BME280;21561;55.654;37.592;2022-09-09T05:44:51;100259.47;;;7.46;78.04
35443;BME280;21561;55.654;37.592;2022-09-09T05:47:20;100270.03;;;7.60;76.40
35443;BME280;21561;55.654;37.592;2022-09-09T05:49:47;100267.53;;;7.66;75.04
35443;BME280;21561;55.654;37.592;2022-09-09T05:52:14;100264.13;;;7.67;74.58
35443;BME280;21561;55.654;37.592;2022-09-09T05:54:41;100271.03;;;7.68;73.05
35443;BME280;21561;55.654;37.592;2022-09-09T05:57:09;100262.44;;;7.71;73.48
35443;BME280;21561;55.654;37.592;2022-09-09T05:59:35;100271.88;;;7.67;73.01
35443;BME280;21561;55.654;37.592;2022-09-09T06:02:02;100283.91;;;7.67;72.72
35443;BME280;21561;55.654;37.592;2022-09-09T06:04:29;100284.84;;;7.70;72.13
35443;BME280;21561;55.654;37.592;2022-09-09T06:06:58;100284.84;;;7.72;72.04
35443;BME280;21561;55.654;37.592;2022-09-09T06:09:25;100278.81;;;7.73;72.06
35443;BME280;21561;55.654;37.592;2022-09-09T06:11:52;100283.25;;;7.81;73.14
35443;BME280;21561;55.654;37.592;2022-09-09T06:14:19;100275.63;;;7.91;71.35
35443;BME280;21561;55.654;37.592;2022-09-09T06:16:45;100284.38;;;7.99;71.45
35443;BME280;21561;55.654;37.592;2022-09-09T06:19:12;100283.63;;;8.08;71.55
35443;BME280;21561;55.654;37.592;2022-09-09T06:21:39;100278.56;;;8.15;71.28
35443;BME280;21561;55.654;37.592;2022-09-09T06:24:06;100276.06;;;8.25;70.75
35443;BME280;21561;55.654;37.592;2022-09-09T06:26:38;100280.53;;;8.35;69.78
35443;BME280;21561;55.654;37.592;2022-09-09T06:29:08;100275.41;;;8.41;67.76
35443;BME280;21561;55.654;37.592;2022-09-09T06:31:36;100283.22;;;8.43;66.92
35443;BME280;21561;55.654;37.592;2022-09-09T06:34:07;100282.41;;;8.48;67.31
35443;BME280;21561;55.654;37.592;2022-09-09T06:36:37;100294.53;;;8.49;66.83
35443;BME280;21561;55.654;37.592;2022-09-09T06:39:05;100291.06;;;8.47;65.34
35443;BME280;21561;55.654;37.592;2022-09-09T06:41:39;100285.06;;;8.51;65.77
35443;BME280;21561;55.654;37.592;2022-09-09T06:44:06;100289.44;;;8.58;66.03
35443;BME280;21561;55.654;37.592;2022-09-09T06:46:33;100288.56;;;8.59;65.20
35443;BME280;21561;55.654;37.592;2022-09-09T06:49:00;100284.31;;;8.62;63.43
35443;BME280;21561;55.654;37.592;2022-09-09T06:51:29;100288.63;;;8.64;63.87
35443;BME280;21561;55.654;37.592;2022-09-09T06:53:58;100299.94;;;8.74;64.08
35443;BME280;21561;55.654;37.592;2022-09-09T06:56:33;100291.47;;;8.87;62.77
35443;BME280;21561;55.654;37.592;2022-09-09T06:59:03;100293.19;;;8.85;61.86
35443;BME280;21561;55.654;37.592;2022-09-09T07:01:32;100293.09;;;8.79;61.49
35443;BME280;21561;55.654;37.592;2022-09-09T07:04:00;100303.44;;;8.76;62.10
35443;BME280;21561;55.654;37.592;2022-09-09T07:06:30;100310.28;;;8.74;61.42
35443;BME280;21561;55.654;37.592;2022-09-09T07:09:09;100310.28;;;8.74;61.90
35443;BME280;21561;55.654;37.592;2022-09-09T07:11:50;100309.38;;;8.67;62.26
35443;BME280;21561;55.654;37.592;2022-09-09T07:14:20;100311.13;;;8.70;62.31
35443;BME280;21561;55.654;37.592;2022-09-09T07:16:48;100318.97;;;8.76;62.29
35443;BME280;21561;55.654;37.592;2022-09-09T07:19:15;100300.94;;;8.84;60.17
35443;BME280;21561;55.654;37.592;2022-09-09T07:21:43;100296.78;;;9.00;59.63
35443;BME280;21561;55.654;37.592;2022-09-09T07:24:10;100267.53;;;9.10;56.83
35443;BME280;21561;55.654;37.592;2022-09-09T07:26:39;100248.50;;;9.08;55.51
35443;BME280;21561;55.654;37.592;2022-09-09T07:29:07;100271.00;;;9.15;56.15
35443;BME280;21561;55.654;37.592;2022-09-09T07:31:36;100303.81;;;9.16;57.32
35443;BME280;21561;55.654;37.592;2022-09-09T07:34:04;100305.59;;;9.20;56.86
35443;BME280;21561;55.654;37.592;2022-09-09T07:36:36;100292.72;;;9.29;55.87
35443;BME280;21561;55.654;37.592;2022-09-09T07:39:09;100266.81;;;9.29;54.57
35443;BME280;21561;55.654;37.592;2022-09-09T07:41:42;100284.88;;;9.22;54.86
35443;BME280;21561;55.654;37.592;2022-09-09T07:44:22;100322.91;;;9.26;56.26
35443;BME280;21561;55.654;37.592;2022-09-09T07:46:49;100324.66;;;9.28;56.44
35443;BME280;21561;55.654;37.592;2022-09-09T07:49:16;100328.25;;;9.44;56.37
35443;BME280;21561;55.654;37.592;2022-09-09T07:51:52;100309.38;;;9.59;55.42
35443;BME280;21561;55.654;37.592;2022-09-09T07:54:19;100280.94;;;9.71;54.33
35443;BME280;21561;55.654;37.592;2022-09-09T07:56:47;100278.38;;;9.71;54.20
35443;BME280;21561;55.654;37.592;2022-09-09T07:59:13;100320.72;;;9.75;55.87
35443;BME280;21561;55.654;37.592;2022-09-09T08:01:50;100341.47;;;9.81;56.37
35443;BME280;21561;55.654;37.592;2022-09-09T08:04:23;100328.44;;;9.70;55.40
35443;BME280;21561;55.654;37.592;2022-09-09T08:06:53;100275.72;;;9.67;53.00
35443;BME280;21561;55.654;37.592;2022-09-09T08:09:21;100256.69;;;9.62;51.87
35443;BME280;21561;55.654;37.592;2022-09-09T08:11:51;100271.44;;;9.67;52.67
35443;BME280;21561;55.654;37.592;2022-09-09T08:14:18;100262.78;;;9.68;52.79
35443;BME280;21561;55.654;37.592;2022-09-09T08:16:47;100281.81;;;9.73;53.46
35443;BME280;21561;55.654;37.592;2022-09-09T08:19:14;100300.81;;;9.71;53.25
35443;BME280;21561;55.654;37.592;2022-09-09T08:21:43;100240.31;;;9.64;50.90
35443;BME280;21561;55.654;37.592;2022-09-09T08:24:11;100252.34;;;9.56;51.52
35443;BME280;21561;55.654;37.592;2022-09-09T08:26:43;100280.03;;;9.63;52.24
35443;BME280;21561;55.654;37.592;2022-09-09T08:29:11;100305.97;;;9.66;52.36
35443;BME280;21561;55.654;37.592;2022-09-09T08:31:47;100300.81;;;9.69;52.62
35443;BME280;21561;55.654;37.592;2022-09-09T08:34:14;100306.84;;;9.70;52.43
35443;BME280;21561;55.654;37.592;2022-09-09T08:36:45;100336.34;;;9.86;53.52
35443;BME280;21561;55.654;37.592;2022-09-09T08:39:14;100311.28;;;9.88;52.38
35443;BME280;21561;55.654;37.592;2022-09-09T08:50:32;100278.84;;;10.85;52.05
35443;BME280;21561;55.654;37.592;2022-09-09T08:55:47;100291.84;;;10.82;51.79
35443;BME280;21561;55.654;37.592;2022-09-09T08:58:23;100273.59;;;10.55;51.05
35443;BME280;21561;55.654;37.592;2022-09-09T09:08:38;100277.88;;;10.42;50.56
35443;BME280;21561;55.654;37.592;2022-09-09T09:11:07;100281.41;;;10.61;50.13
35443;BME280;21561;55.654;37.592;2022-09-09T09:13:58;100266.75;;;10.94;50.21
35443;BME280;21561;55.654;37.592;2022-09-09T09:16:36;100279.78;;;11.17;50.03
35443;BME280;21561;55.654;37.592;2022-09-09T09:19:10;100256.41;;;11.31;48.86
35443;BME280;21561;55.654;37.592;2022-09-09T09:21:43;100164.63;;;11.13;47.59
35443;BME280;21561;55.654;37.592;2022-09-09T09:27:33;100258.13;;;11.10;49.28
35443;BME280;21561;55.654;37.592;2022-09-09T09:30:20;100259.81;;;10.86;49.80
35443;BME280;21561;55.654;37.592;2022-09-09T09:32:59;100284.88;;;10.72;49.68
35443;BME280;21561;55.654;37.592;2022-09-09T09:35:27;100274.47;;;10.67;49.77
35443;BME280;21561;55.654;37.592;2022-09-09T09:37:54;100289.22;;;10.73;50.03
35443;BME280;21561;55.654;37.592;2022-09-09T09:40:55;100317.84;;;10.95;51.15
35443;BME280;21561;55.654;37.592;2022-09-09T09:43:42;100340.34;;;11.06;51.80
35443;BME280;21561;55.654;37.592;2022-09-09T09:46:23;100330.81;;;11.01;51.22
35443;BME280;21561;55.654;37.592;2022-09-09T09:49:03;100327.34;;;10.89;51.16
35443;BME280;21561;55.654;37.592;2022-09-09T09:51:32;100325.56;;;10.76;50.93
35443;BME280;21561;55.654;37.592;2022-09-09T09:56:43;100282.31;;;10.75;49.21
35443;BME280;21561;55.654;37.592;2022-09-09T09:59:34;100230.41;;;10.75;48.83
35443;BME280;21561;55.654;37.592;2022-09-09T10:02:54;100213.91;;;10.58;47.88
35443;BME280;21561;55.654;37.592;2022-09-09T10:07:31;100184.53;;;10.93;46.82
35443;BME280;21561;55.654;37.592;2022-09-09T10:09:59;100185.38;;;11.10;47.15
35443;BME280;21561;55.654;37.592;2022-09-09T10:18:04;100233.88;;;11.02;48.36
35443;BME280;21561;55.654;37.592;2022-09-09T10:20:42;100258.09;;;11.01;48.61
35443;BME280;21561;55.654;37.592;2022-09-09T10:23:26;100283.22;;;10.99;48.85
35443;BME280;21561;55.654;37.592;2022-09-09T10:31:24;100170.97;;;12.62;45.04
35443;BME280;21561;55.654;37.592;2022-09-09T10:34:47;100056.56;;;14.02;41.86
35443;BME280;21561;55.654;37.592;2022-09-09T10:36:56;99931.28;;;14.53;39.90
35443;BME280;21561;55.654;37.592;2022-09-09T10:39:39;99897.13;;;14.17;40.77
35443;BME280;21561;55.654;37.592;2022-09-09T10:42:12;99960.53;;;13.01;42.61
35443;BME280;21561;55.654;37.592;2022-09-09T10:45:15;100056.34;;;12.71;44.68
35443;BME280;21561;55.654;37.592;2022-09-09T10:50:52;100121.53;;;12.56;44.36
35443;BME280;21561;55.654;37.592;2022-09-09T10:53:53;100021.91;;;13.90;41.71
35443;BME280;21561;55.654;37.592;2022-09-09T10:56:24;99960.13;;;14.94;39.00
35443;BME280;21561;55.654;37.592;2022-09-09T10:59:04;99813.91;;;15.98;37.64
35443;BME280;21561;55.654;37.592;2022-09-09T11:01:42;99785.09;;;16.31;36.80
35443;BME280;21561;55.654;37.592;2022-09-09T11:04:22;99744.00;;;16.33;37.52
35443;BME280;21561;55.654;37.592;2022-09-09T11:06:56;99721.34;;;16.02;36.80
35443;BME280;21561;55.654;37.592;2022-09-09T11:09:34;99747.06;;;15.16;37.54
35443;BME280;21561;55.654;37.592;2022-09-09T11:12:03;99807.75;;;14.06;39.22
35443;BME280;21561;55.654;37.592;2022-09-09T11:14:31;99874.81;;;13.46;40.02
35443;BME280;21561;55.654;37.592;2022-09-09T11:17:07;99925.50;;;13.22;40.52
35443;BME280;21561;55.654;37.592;2022-09-09T11:19:41;99939.63;;;13.04;40.57
35443;BME280;21561;55.654;37.592;2022-09-09T11:22:37;99965.75;;;13.01;41.12
35443;BME280;21561;55.654;37.592;2022-09-09T11:25:17;99991.44;;;13.32;40.23
35443;BME280;21561;55.654;37.592;2022-09-09T11:30:15;99891.66;;;13.81;39.05
35443;BME280;21561;55.654;37.592;2022-09-09T11:38:46;100069.75;;;13.16;43.04
35443;BME280;21561;55.654;37.592;2022-09-09T11:41:14;100101.63;;;12.49;43.36
35443;BME280;21561;55.654;37.592;2022-09-09T11:43:52;100152.13;;;12.26;44.08
35443;BME280;21561;55.654;37.592;2022-09-09T11:46:32;100173.66;;;12.47;43.71
35443;BME280;21561;55.654;37.592;2022-09-09T11:49:04;100178.03;;;12.43;43.79
35443;BME280;21561;55.654;37.592;2022-09-09T11:51:33;100156.78;;;13.00;42.30
35443;BME280;21561;55.654;37.592;2022-09-09T11:56:29;99896.78;;;15.62;36.90
35443;BME280;21561;55.654;37.592;2022-09-09T11:59:24;99780.47;;;16.99;36.46
35443;BME280;21561;55.654;37.592;2022-09-09T12:02:02;99647.81;;;17.70;34.16
35443;BME280;21561;55.654;37.592;2022-09-09T12:04:34;99594.53;;;17.92;32.71
35443;BME280;21561;55.654;37.592;2022-09-09T12:07:28;99550.97;;;17.88;32.53
35443;BME280;21561;55.654;37.592;2022-09-09T12:10:19;99576.81;;;18.85;32.25
35443;BME280;21561;55.654;37.592;2022-09-09T12:12:47;99515.84;;;19.56;30.42
35443;BME280;21561;55.654;37.592;2022-09-09T12:17:57;99437.72;;;17.29;31.68
35443;BME280;21561;55.654;37.592;2022-09-09T12:20:38;99524.84;;;16.89;33.44
35443;BME280;21561;55.654;37.592;2022-09-09T12:23:35;99650.44;;;15.15;36.51
35443;BME280;21561;55.654;37.592;2022-09-09T12:32:13;99805.06;;;15.32;37.41
35443;BME280;21561;55.654;37.592;2022-09-09T12:37:16;99785.72;;;16.39;35.35
35443;BME280;21561;55.654;37.592;2022-09-09T12:39:57;99720.53;;;17.42;34.54
35443;BME280;21561;55.654;37.592;2022-09-09T12:42:26;99668.16;;;17.89;32.75
35443;BME280;21561;55.654;37.592;2022-09-09T12:48:11;99537.19;;;18.90;30.95
35443;BME280;21561;55.654;37.592;2022-09-09T12:50:20;99476.91;;;19.25;30.32
35443;BME280;21561;55.654;37.592;2022-09-09T12:52:50;99460.44;;;19.78;29.30
35443;BME280;21561;55.654;37.592;2022-09-09T12:55:20;99409.81;;;20.26;28.80
35443;BME280;21561;55.654;37.592;2022-09-09T12:57:49;99362.94;;;20.32;28.53
35443;BME280;21561;55.654;37.592;2022-09-09T13:00:19;99315.66;;;20.29;28.29
35443;BME280;21561;55.654;37.592;2022-09-09T13:02:58;99323.03;;;20.56;28.09
35443;BME280;21561;55.654;37.592;2022-09-09T13:05:35;99354.91;;;20.69;28.07
35443;BME280;21561;55.654;37.592;2022-09-09T13:08:07;99320.59;;;21.18;27.43
35443;BME280;21561;55.654;37.592;2022-09-09T13:10:43;99287.53;;;21.43;26.61
35443;BME280;21561;55.654;37.592;2022-09-09T13:13:36;99259.97;;;21.32;26.51
35443;BME280;21561;55.654;37.592;2022-09-09T13:16:06;99275.09;;;21.61;25.79
35443;BME280;21561;55.654;37.592;2022-09-09T13:18:36;99248.38;;;22.39;24.77
35443;BME280;21561;55.654;37.592;2022-09-09T13:21:04;99191.63;;;22.86;24.41
35443;BME280;21561;55.654;37.592;2022-09-09T13:23:35;99186.56;;;22.83;25.07
35443;BME280;21561;55.654;37.592;2022-09-09T13:26:20;99166.28;;;21.70;25.93
35443;BME280;21561;55.654;37.592;2022-09-09T13:28:53;99242.91;;;18.87;28.79
35443;BME280;21561;55.654;37.592;2022-09-09T13:31:24;99358.66;;;17.83;31.34
35443;BME280;21561;55.654;37.592;2022-09-09T13:33:54;99430.53;;;17.34;31.57
35443;BME280;21561;55.654;37.592;2022-09-09T13:36:29;99516.50;;;17.26;32.37
35443;BME280;21561;55.654;37.592;2022-09-09T13:38:58;99548.09;;;17.23;31.93
35443;BME280;21561;55.654;37.592;2022-09-09T13:41:36;99561.97;;;18.20;31.60
35443;BME280;21561;55.654;37.592;2022-09-09T13:44:37;99533.94;;;19.04;30.35
35443;BME280;21561;55.654;37.592;2022-09-09T13:49:39;99504.72;;;18.70;30.22
35443;BME280;21561;55.654;37.592;2022-09-09T13:52:14;99498.16;;;18.81;30.20
35443;BME280;21561;55.654;37.592;2022-09-09T13:54:42;99497.28;;;17.49;30.96
35443;BME280;21561;55.654;37.592;2022-09-09T13:57:21;99563.88;;;16.70;32.95
35443;BME280;21561;55.654;37.592;2022-09-09T13:59:49;99628.84;;;15.39;34.74
35443;BME280;21561;55.654;37.592;2022-09-09T14:02:32;99708.28;;;14.62;36.47
35443;BME280;21561;55.654;37.592;2022-09-09T14:05:01;99767.53;;;14.16;37.27
35443;BME280;21561;55.654;37.592;2022-09-09T14:07:29;99832.09;;;14.05;37.98
35443;BME280;21561;55.654;37.592;2022-09-09T14:09:55;99858.78;;;14.67;36.68
35443;BME280;21561;55.654;37.592;2022-09-09T14:12:22;99823.53;;;15.26;35.80
35443;BME280;21561;55.654;37.592;2022-09-09T14:14:49;99817.69;;;15.15;35.88
35443;BME280;21561;55.654;37.592;2022-09-09T14:17:16;99817.81;;;15.46;35.30
35443;BME280;21561;55.654;37.592;2022-09-09T14:19:43;99809.69;;;15.93;34.80
35443;BME280;21561;55.654;37.592;2022-09-09T14:22:11;99771.81;;;16.37;34.08
35443;BME280;21561;55.654;37.592;2022-09-09T14:24:38;99737.81;;;16.66;33.35
35443;BME280;21561;55.654;37.592;2022-09-09T14:27:05;99723.94;;;16.90;32.72
35443;BME280;21561;55.654;37.592;2022-09-09T14:29:32;99684.03;;;16.54;33.24
35443;BME280;21561;55.654;37.592;2022-09-09T14:31:59;99717.69;;;15.75;34.76
35443;BME280;21561;55.654;37.592;2022-09-09T14:34:27;99764.13;;;14.95;35.76
35443;BME280;21561;55.654;37.592;2022-09-09T14:36:54;99824.44;;;14.41;37.29
35443;BME280;21561;55.654;37.592;2022-09-09T14:39:21;99885.59;;;13.79;38.59
35443;BME280;21561;55.654;37.592;2022-09-09T14:41:47;99946.13;;;13.42;39.41
35443;BME280;21561;55.654;37.592;2022-09-09T14:44:14;99987.19;;;13.23;40.15
35443;BME280;21561;55.654;37.592;2022-09-09T14:46:42;100006.47;;;13.08;40.44
35443;BME280;21561;55.654;37.592;2022-09-09T14:49:09;100050.09;;;12.89;41.13
35443;BME280;21561;55.654;37.592;2022-09-09T14:51:36;100066.72;;;12.74;41.54
35443;BME280;21561;55.654;37.592;2022-09-09T14:54:03;100098.06;;;12.62;42.02
35443;BME280;21561;55.654;37.592;2022-09-09T14:56:33;100123.19;;;12.66;42.04
35443;BME280;21561;55.654;37.592;2022-09-09T14:59:04;100128.47;;;12.62;42.06
35443;BME280;21561;55.654;37.592;2022-09-09T15:01:31;100147.56;;;12.60;42.47
35443;BME280;21561;55.654;37.592;2022-09-09T15:04:01;100151.91;;;12.57;42.18
35443;BME280;21561;55.654;37.592;2022-09-09T15:06:29;100181.47;;;12.51;42.86
35443;BME280;21561;55.654;37.592;2022-09-09T15:08:59;100204.09;;;12.38;43.04
35443;BME280;21561;55.654;37.592;2022-09-09T15:11:29;100219.78;;;12.23;43.78
35443;BME280;21561;55.654;37.592;2022-09-09T15:13:57;100233.69;;;12.13;43.80